Time;durP1;ratioP1;P1;durP2;ratioP2;P2;SDS_P1;SDS_P2;PMS_P1;PMS_P2;Temp;Humidity;BMP_temperature;BMP_pressure;BME280_temperature;BME280_humidity;BME280_pressure;Samples;Min_cycle;Max_cycle;Signal;HPM_P1;HPM_P2
2023/11/14 00:01:55;;;;;;;17.20;4.22;;;18.20;58.70;;;;;;5052308;28;20215;-58
2023/11/14 00:04:21;;;;;;;14.75;4.28;;;18.20;58.70;;;;;;5052390;28;20684;-58
2023/11/14 00:06:49;;;;;;;20.27;4.10;;;18.20;58.70;;;;;;5052347;28;20227;-59
2023/11/14 00:09:17;;;;;;;15.82;3.88;;;18.10;58.60;;;;;;5051877;28;20653;-58
2023/11/14 00:11:44;;;;;;;16.00;3.53;;;18.20;58.70;;;;;;5052143;28;20218;-58
2023/11/14 00:14:12;;;;;;;19.98;5.15;;;18.20;58.70;;;;;;5051468;28;20241;-58
2023/11/14 00:16:40;;;;;;;16.48;4.18;;;18.20;58.70;;;;;;5051978;28;20255;-58
2023/11/14 00:19:08;;;;;;;16.75;3.95;;;18.10;58.60;;;;;;5052385;28;20202;-57
2023/11/14 00:21:35;;;;;;;16.55;3.70;;;18.10;58.70;;;;;;5052048;28;20219;-58
2023/11/14 00:24:02;;;;;;;16.10;4.00;;;18.10;58.70;;;;;;5051982;28;20272;-58
2023/11/14 00:26:29;;;;;;;20.33;3.92;;;18.10;58.70;;;;;;5052141;28;20198;-58
2023/11/14 00:28:56;;;;;;;17.02;4.20;;;18.10;58.80;;;;;;5051967;28;20653;-57
2023/11/14 00:31:24;;;;;;;17.13;3.95;;;18.10;58.70;;;;;;5051544;28;20599;-58
2023/11/14 00:33:51;;;;;;;17.35;4.10;;;18.10;58.70;;;;;;5052277;28;20195;-58
2023/11/14 00:36:19;;;;;;;21.75;4.88;;;18.10;58.80;;;;;;5052139;28;20194;-58
2023/11/14 00:38:46;;;;;;;18.70;3.92;;;18.20;58.90;;;;;;5051871;28;20192;-58
2023/11/14 00:41:13;;;;;;;15.10;4.07;;;18.10;58.80;;;;;;5052088;28;20238;-57
2023/11/14 00:43:40;;;;;;;17.92;4.63;;;18.10;58.90;;;;;;5052078;28;20279;-57
2023/11/14 00:46:11;;;;;;;17.33;4.22;;;18.10;58.90;;;;;;5051761;28;20561;-58
2023/11/14 00:48:39;;;;;;;22.38;4.65;;;18.10;58.90;;;;;;5051723;28;20667;-58
2023/11/14 00:51:07;;;;;;;19.52;4.15;;;18.10;58.90;;;;;;5052356;28;20245;-58
2023/11/14 00:53:33;;;;;;;13.98;4.03;;;18.10;59.00;;;;;;5051754;28;20792;-58
2023/11/14 00:56:00;;;;;;;17.40;3.78;;;18.10;59.00;;;;;;5051632;28;20687;-58
2023/11/14 00:58:27;;;;;;;22.10;4.60;;;18.10;59.10;;;;;;5052170;28;20222;-56
2023/11/14 01:00:55;;;;;;;17.55;3.58;;;18.00;59.00;;;;;;5051867;28;20631;-58
2023/11/14 01:03:24;;;;;;;21.67;4.05;;;18.10;59.10;;;;;;5050175;28;20224;-59
2023/11/14 01:05:52;;;;;;;14.20;3.67;;;18.10;59.10;;;;;;5051425;28;20680;-58
2023/11/14 01:08:19;;;;;;;14.43;3.72;;;18.10;59.10;;;;;;5051520;28;20232;-58
2023/11/14 01:10:47;;;;;;;20.20;4.00;;;18.10;59.10;;;;;;5051940;28;20192;-58
2023/11/14 01:13:14;;;;;;;17.42;4.07;;;18.10;59.20;;;;;;5051731;28;20588;-58
2023/11/14 01:15:41;;;;;;;17.10;4.45;;;18.10;59.20;;;;;;5051061;28;20210;-58
2023/11/14 01:18:09;;;;;;;16.02;4.38;;;18.10;59.10;;;;;;5051710;28;20231;-58
2023/11/14 01:20:36;;;;;;;25.55;4.97;;;18.10;59.20;;;;;;5051445;28;20191;-58
2023/11/14 01:23:04;;;;;;;18.42;4.18;;;18.00;59.10;;;;;;5051635;28;20220;-58
2023/11/14 01:25:31;;;;;;;20.55;4.25;;;18.10;59.20;;;;;;5051846;28;20280;-58
2023/11/14 01:27:58;;;;;;;20.08;4.90;;;18.10;59.20;;;;;;5055225;28;20318;-58
2023/11/14 01:30:25;;;;;;;17.15;4.07;;;18.10;59.30;;;;;;5055182;28;20275;-58
2023/11/14 01:32:52;;;;;;;17.52;4.53;;;18.10;59.30;;;;;;5055446;28;20306;-57
2023/11/14 01:35:19;;;;;;;18.52;4.25;;;18.10;59.30;;;;;;5055330;28;20190;-58
2023/11/14 01:37:46;;;;;;;19.25;4.57;;;18.00;59.20;;;;;;5055124;28;20218;-58
2023/11/14 01:40:15;;;;;;;20.00;4.75;;;18.10;59.30;;;;;;5055265;28;20271;-57
2023/11/14 01:42:42;;;;;;;19.83;4.50;;;18.10;59.30;;;;;;5055034;28;20781;-59
2023/11/14 01:45:09;;;;;;;21.92;4.10;;;18.10;59.30;;;;;;5054718;28;20183;-59
2023/11/14 01:47:36;;;;;;;16.00;3.97;;;18.10;59.30;;;;;;5055146;28;20241;-58
2023/11/14 01:50:04;;;;;;;21.13;4.53;;;18.10;59.30;;;;;;5054739;28;20563;-59
2023/11/14 01:52:31;;;;;;;19.65;4.38;;;18.10;59.40;;;;;;5054541;28;20222;-57
2023/11/14 01:54:58;;;;;;;17.17;3.75;;;18.10;59.30;;;;;;5055072;28;20195;-57
2023/11/14 01:57:26;;;;;;;19.10;4.45;;;18.10;59.40;;;;;;5055296;28;20220;-58
2023/11/14 01:59:53;;;;;;;21.55;4.57;;;18.00;59.30;;;;;;5054587;28;20270;-58
2023/11/14 02:02:21;;;;;;;19.13;4.30;;;18.00;59.30;;;;;;5054999;28;20302;-58
2023/11/14 02:04:49;;;;;;;23.20;4.85;;;18.10;59.40;;;;;;5054545;28;20728;-58
2023/11/14 02:07:17;;;;;;;15.82;3.95;;;18.00;59.40;;;;;;5054138;28;20231;-58
2023/11/14 02:09:44;;;;;;;16.38;4.03;;;18.00;59.40;;;;;;5054768;28;20615;-58
2023/11/14 02:12:12;;;;;;;21.00;4.43;;;18.00;59.40;;;;;;5054411;28;20222;-57
2023/11/14 02:14:41;;;;;;;18.52;4.57;;;18.00;59.40;;;;;;5054371;28;20215;-58
2023/11/14 02:17:15;;;;;;;21.05;4.50;;;18.00;59.40;;;;;;5054569;28;20302;-58
2023/11/14 02:19:42;;;;;;;15.63;4.28;;;18.00;59.40;;;;;;5054548;28;20227;-57
2023/11/14 02:22:09;;;;;;;16.80;4.32;;;18.00;59.40;;;;;;5054138;28;20302;-57
2023/11/14 02:24:39;;;;;;;20.15;4.80;;;18.10;59.50;;;;;;5054469;28;20198;-58
2023/11/14 02:27:08;;;;;;;17.15;4.25;;;18.00;59.40;;;;;;5053944;28;20697;-58
2023/11/14 02:29:38;;;;;;;14.52;4.07;;;18.00;59.40;;;;;;5054019;28;20192;-57
2023/11/14 02:32:06;;;;;;;16.52;3.85;;;18.00;59.40;;;;;;5053955;28;20570;-58
2023/11/14 02:34:33;;;;;;;19.48;4.32;;;18.00;59.40;;;;;;5053968;28;20286;-58
2023/11/14 02:36:59;;;;;;;18.83;4.57;;;18.00;60.10;;;;;;5053109;28;20689;-58
2023/11/14 02:39:28;;;;;;;18.60;3.80;;;18.00;59.50;;;;;;5053856;28;20270;-59
2023/11/14 02:41:55;;;;;;;16.70;4.32;;;18.00;59.50;;;;;;5054016;28;20222;-58
2023/11/14 02:44:23;;;;;;;20.15;4.38;;;18.00;59.50;;;;;;5053733;28;20270;-58
2023/11/14 02:46:50;;;;;;;17.83;4.03;;;18.00;59.50;;;;;;5053930;28;20246;-58
2023/11/14 02:49:46;;;;;;;23.35;4.70;;;18.00;59.50;;;;;;5053934;28;20246;-58
2023/11/14 02:52:13;;;;;;;21.80;4.75;;;18.00;59.70;;;;;;5053474;28;20220;-58
2023/11/14 02:54:40;;;;;;;17.13;4.18;;;18.00;59.60;;;;;;5053873;28;20283;-58
2023/11/14 02:57:09;;;;;;;15.80;4.00;;;18.00;59.60;;;;;;5053463;28;20222;-58
2023/11/14 02:59:38;;;;;;;15.82;4.00;;;18.00;59.60;;;;;;5053132;28;20282;-57
2023/11/14 03:02:05;;;;;;;18.33;3.78;;;18.00;59.60;;;;;;5054073;28;20215;-58
2023/11/14 03:04:32;;;;;;;22.13;4.50;;;18.00;59.70;;;;;;5053438;28;20319;-59
2023/11/14 03:07:00;;;;;;;19.52;4.60;;;18.00;60.30;;;;;;5053426;28;20215;-58
2023/11/14 03:09:27;;;;;;;20.48;4.50;;;18.00;59.60;;;;;;5053649;28;20226;-57
2023/11/14 03:11:54;;;;;;;20.95;4.88;;;18.00;59.70;;;;;;5053180;28;20581;-57
2023/11/14 03:14:21;;;;;;;15.40;5.05;;;18.00;59.70;;;;;;5053257;28;20234;-58
2023/11/14 03:16:49;;;;;;;18.13;4.75;;;18.00;59.70;;;;;;5053364;28;20302;-58
2023/11/14 03:19:16;;;;;;;15.70;4.00;;;18.00;59.70;;;;;;5053437;28;20195;-57
2023/11/14 03:21:44;;;;;;;19.45;4.05;;;18.00;59.70;;;;;;5052998;28;20187;-57
2023/11/14 03:24:11;;;;;;;19.70;3.88;;;18.00;59.70;;;;;;5053061;28;20223;-58
2023/11/14 03:26:39;;;;;;;16.48;4.18;;;18.00;59.70;;;;;;5053161;28;20192;-58
2023/11/14 03:29:06;;;;;;;16.65;3.90;;;18.00;59.70;;;;;;5052511;28;20215;-58
2023/11/14 03:31:33;;;;;;;23.67;5.35;;;18.00;59.70;;;;;;5053085;28;20278;-58
2023/11/14 03:34:02;;;;;;;15.57;4.22;;;18.00;59.70;;;;;;5053173;28;20278;-58
2023/11/14 03:36:29;;;;;;;15.98;4.07;;;18.00;59.80;;;;;;5052746;28;20210;-55
2023/11/14 03:38:56;;;;;;;19.77;4.28;;;18.00;59.80;;;;;;5052723;28;20744;-58
2023/11/14 03:41:22;;;;;;;20.85;4.13;;;18.00;59.80;;;;;;5052715;28;20740;-56
2023/11/14 03:43:49;;;;;;;20.55;3.95;;;18.00;59.80;;;;;;5052609;28;20216;-56
2023/11/14 03:46:16;;;;;;;19.30;4.30;;;18.00;59.80;;;;;;5052538;28;20187;-58
2023/11/14 03:48:43;;;;;;;21.60;4.68;;;18.00;59.80;;;;;;5052654;28;20764;-57
2023/11/14 03:51:11;;;;;;;15.93;3.90;;;18.00;59.90;;;;;;5052205;28;20194;-58
2023/11/14 03:53:39;;;;;;;16.38;3.90;;;18.00;59.90;;;;;;5052985;28;20219;-58
2023/11/14 03:56:06;;;;;;;15.85;4.40;;;18.00;59.90;;;;;;5052388;28;20638;-58
2023/11/14 03:58:33;;;;;;;17.40;3.58;;;18.00;59.90;;;;;;5052634;28;20302;-59
2023/11/14 04:01:00;;;;;;;19.67;4.20;;;18.00;59.90;;;;;;5052333;28;20192;-56
2023/11/14 04:03:28;;;;;;;18.20;4.00;;;18.00;60.00;;;;;;5052527;28;20216;-59
2023/11/14 04:05:55;;;;;;;18.13;4.00;;;18.00;60.00;;;;;;5051844;28;20255;-57
2023/11/14 04:08:23;;;;;;;20.25;4.80;;;18.00;60.00;;;;;;5052449;28;20322;-58
2023/11/14 04:10:50;;;;;;;18.20;4.10;;;18.00;60.00;;;;;;5052243;28;20278;-58
2023/11/14 04:13:17;;;;;;;17.88;4.32;;;18.00;60.10;;;;;;5052329;28;20251;-59
2023/11/14 04:15:44;;;;;;;18.02;4.20;;;18.00;60.00;;;;;;5052144;28;20227;-59
2023/11/14 04:18:11;;;;;;;23.92;4.30;;;18.00;60.10;;;;;;5052238;28;20219;-58
2023/11/14 04:20:38;;;;;;;18.92;4.10;;;18.00;60.90;;;;;;5051776;28;20542;-58
2023/11/14 04:23:05;;;;;;;13.88;3.60;;;17.90;60.10;;;;;;5052179;28;20215;-57
2023/11/14 04:25:34;;;;;;;21.10;4.30;;;18.00;60.10;;;;;;5052357;28;20266;-58
2023/11/14 04:28:01;;;;;;;18.85;3.95;;;18.00;60.10;;;;;;5051700;28;20599;-55
2023/11/14 04:30:28;;;;;;;18.30;4.28;;;18.00;60.10;;;;;;5052162;28;20741;-57
2023/11/14 04:32:55;;;;;;;16.52;3.85;;;17.90;60.00;;;;;;5052322;28;20587;-58
2023/11/14 04:35:22;;;;;;;20.30;4.20;;;18.00;60.10;;;;;;5051957;28;20242;-58
2023/11/14 04:37:50;;;;;;;23.73;4.03;;;17.90;60.00;;;;;;5052251;28;20211;-59
2023/11/14 04:40:17;;;;;;;12.65;3.63;;;18.00;60.10;;;;;;5051947;28;20257;-58
2023/11/14 04:42:46;;;;;;;16.83;4.30;;;17.90;60.00;;;;;;5051801;28;20225;-57
2023/11/14 04:45:13;;;;;;;17.70;4.03;;;18.00;60.10;;;;;;5052144;28;20196;-57
2023/11/14 04:47:40;;;;;;;15.20;3.90;;;17.90;60.00;;;;;;5052016;28;20585;-59
2023/11/14 04:50:08;;;;;;;17.35;3.72;;;18.00;60.10;;;;;;5051792;28;20184;-58
2023/11/14 04:52:35;;;;;;;21.30;4.47;;;17.90;60.00;;;;;;5052090;28;20318;-57
2023/11/14 04:55:04;;;;;;;19.65;3.85;;;17.90;60.10;;;;;;5052062;28;20245;-58
2023/11/14 04:57:31;;;;;;;19.52;4.65;;;17.90;60.00;;;;;;5051966;28;20253;-58
2023/11/14 04:59:59;;;;;;;18.73;4.65;;;17.90;60.10;;;;;;5052060;28;20190;-58
2023/11/14 05:02:27;;;;;;;17.90;4.38;;;17.90;60.10;;;;;;5055667;28;20225;-58
2023/11/14 05:04:54;;;;;;;18.90;5.25;;;17.90;60.10;;;;;;5055385;28;20648;-57
2023/11/14 05:07:22;;;;;;;20.42;4.28;;;17.90;60.10;;;;;;5055785;28;20302;-58
2023/11/14 05:09:50;;;;;;;21.25;4.90;;;17.90;60.10;;;;;;5055511;28;20302;-59
2023/11/14 05:12:17;;;;;;;13.82;3.72;;;17.90;60.10;;;;;;5055631;28;20212;-57
2023/11/14 05:14:45;;;;;;;19.70;4.30;;;17.90;60.10;;;;;;5055826;28;20609;-58
2023/11/14 05:17:14;;;;;;;18.77;3.58;;;17.90;60.20;;;;;;5055734;28;20231;-58
2023/11/14 05:19:41;;;;;;;19.92;4.70;;;17.90;60.20;;;;;;5055332;28;20246;-58
2023/11/14 05:22:08;;;;;;;14.45;3.58;;;17.90;61.00;;;;;;5055611;28;20302;-56
2023/11/14 05:24:35;;;;;;;20.08;3.97;;;17.90;60.20;;;;;;5055555;28;20271;-57
2023/11/14 05:27:03;;;;;;;16.73;4.53;;;17.90;60.20;;;;;;5055278;28;20307;-56
2023/11/14 05:29:29;;;;;;;12.40;3.38;;;17.90;60.30;;;;;;5055456;28;20212;-58
2023/11/14 05:31:57;;;;;;;16.08;4.28;;;17.90;60.20;;;;;;5055434;28;20620;-57
2023/11/14 05:34:25;;;;;;;14.93;3.85;;;17.90;60.30;;;;;;5055015;28;20359;-58
2023/11/14 05:36:52;;;;;;;15.10;4.00;;;17.90;60.30;;;;;;5055296;28;20191;-58
2023/11/14 05:39:20;;;;;;;17.25;3.85;;;17.90;60.20;;;;;;5055326;28;20194;-57
2023/11/14 05:41:46;;;;;;;16.10;3.83;;;17.90;60.20;;;;;;5055063;28;20195;-58
2023/11/14 05:44:14;;;;;;;11.82;3.55;;;17.90;60.20;;;;;;5055238;28;20183;-58
2023/11/14 05:46:41;;;;;;;17.20;3.85;;;18.00;60.20;;;;;;5055201;28;20188;-58
2023/11/14 05:49:08;;;;;;;16.70;4.13;;;18.00;60.20;;;;;;5054408;28;20696;-58
2023/11/14 05:51:38;;;;;;;14.40;3.67;;;18.00;60.20;;;;;;5055108;28;20192;-59
2023/11/14 05:54:05;;;;;;;14.77;3.72;;;18.10;60.30;;;;;;5055089;28;20223;-58
2023/11/14 05:56:32;;;;;;;15.80;3.95;;;18.10;60.30;;;;;;5054293;28;20279;-57
2023/11/14 05:58:59;;;;;;;15.30;3.90;;;18.20;60.30;;;;;;5055172;28;20274;-58
2023/11/14 06:01:26;;;;;;;15.18;3.47;;;18.20;60.30;;;;;;5054924;28;20279;-56
2023/11/14 06:03:54;;;;;;;19.10;3.85;;;18.30;60.20;;;;;;5054485;28;20231;-57
2023/11/14 06:06:20;;;;;;;14.32;3.58;;;18.30;60.10;;;;;;5055253;28;20203;-58
2023/11/14 06:08:49;;;;;;;15.15;3.80;;;18.40;60.10;;;;;;5054541;28;20600;-57
2023/11/14 06:11:16;;;;;;;12.48;3.40;;;18.40;60.00;;;;;;5054312;28;20184;-58
2023/11/14 06:13:45;;;;;;;15.82;3.60;;;18.40;59.90;;;;;;5053727;28;20309;-59
2023/11/14 06:16:12;;;;;;;17.58;3.97;;;18.50;59.80;;;;;;5054606;28;20220;-58
2023/11/14 06:18:39;;;;;;;17.77;4.28;;;18.50;59.70;;;;;;5054017;28;20311;-57
2023/11/14 06:21:07;;;;;;;15.52;3.50;;;18.50;59.70;;;;;;5054265;28;20175;-57
2023/11/14 06:23:34;;;;;;;12.00;3.20;;;18.60;59.70;;;;;;5054538;28;20223;-58
2023/11/14 06:26:03;;;;;;;14.02;3.83;;;18.60;59.60;;;;;;5054037;28;20190;-57
2023/11/14 06:28:31;;;;;;;13.40;3.90;;;18.60;59.50;;;;;;5054499;28;20601;-58
2023/11/14 06:30:58;;;;;;;14.25;3.42;;;18.60;59.50;;;;;;5054346;28;20196;-59
2023/11/14 06:33:25;;;;;;;9.85;3.30;;;18.70;59.50;;;;;;5054135;28;20307;-58
2023/11/14 06:35:53;;;;;;;13.57;3.70;;;18.70;59.50;;;;;;5054271;28;20196;-58
2023/11/14 06:38:20;;;;;;;15.07;3.70;;;18.70;59.30;;;;;;5054336;28;20238;-57
2023/11/14 06:40:47;;;;;;;18.08;4.00;;;18.70;59.30;;;;;;5053862;28;20184;-58
2023/11/14 06:43:15;;;;;;;12.68;3.67;;;18.70;59.30;;;;;;5054079;28;20219;-58
2023/11/14 06:45:42;;;;;;;15.75;3.50;;;18.70;59.20;;;;;;5054079;28;20192;-57
2023/11/14 06:48:09;;;;;;;18.70;3.40;;;18.70;59.20;;;;;;5053807;28;20265;-58
2023/11/14 06:50:36;;;;;;;14.00;3.58;;;18.80;59.30;;;;;;5053667;28;20223;-57
2023/11/14 06:53:03;;;;;;;15.48;4.13;;;18.70;59.20;;;;;;5054074;28;20254;-59
2023/11/14 06:55:30;;;;;;;12.82;3.13;;;18.80;59.20;;;;;;5053671;28;20202;-56
2023/11/14 06:57:57;;;;;;;14.43;3.42;;;18.80;59.20;;;;;;5053828;28;20215;-58
2023/11/14 07:00:25;;;;;;;12.88;3.53;;;18.80;59.20;;;;;;5054000;28;20187;-58
2023/11/14 07:02:52;;;;;;;13.05;3.67;;;18.80;59.20;;;;;;5053682;28;20302;-58
2023/11/14 07:05:19;;;;;;;11.80;3.38;;;18.80;59.20;;;;;;5053375;28;20667;-58
2023/11/14 07:07:46;;;;;;;13.90;4.10;;;18.80;59.20;;;;;;5053775;28;20222;-58
2023/11/14 07:10:14;;;;;;;15.60;3.60;;;18.80;59.20;;;;;;5053214;28;20219;-57
2023/11/14 07:12:41;;;;;;;16.38;3.65;;;18.80;59.20;;;;;;5053366;28;20226;-58
2023/11/14 07:15:10;;;;;;;12.75;3.78;;;18.80;59.20;;;;;;5053542;28;20619;-58
2023/11/14 07:17:39;;;;;;;14.05;3.63;;;18.80;59.20;;;;;;5053184;28;20215;-58
2023/11/14 07:20:10;;;;;;;12.35;3.25;;;18.90;59.30;;;;;;5053009;28;20222;-58
2023/11/14 07:22:39;;;;;;;18.23;3.85;;;18.90;59.30;;;;;;5053416;28;20368;-58
2023/11/14 07:25:06;;;;;;;17.73;3.95;;;18.90;59.30;;;;;;5052803;28;20398;-57
2023/11/14 07:27:33;;;;;;;12.20;3.38;;;18.90;59.30;;;;;;5052996;28;20728;-58
2023/11/14 07:30:00;;;;;;;15.35;3.63;;;18.90;59.30;;;;;;5053121;28;20230;-57
2023/11/14 07:32:27;;;;;;;15.60;4.22;;;18.90;59.30;;;;;;5053012;28;20223;-58
2023/11/14 07:34:56;;;;;;;15.32;3.92;;;18.90;59.30;;;;;;5052974;28;20278;-58
2023/11/14 07:37:22;;;;;;;14.90;3.75;;;19.00;59.30;;;;;;5053128;28;20226;-57
2023/11/14 07:39:49;;;;;;;14.95;3.60;;;18.90;59.30;;;;;;5053003;28;20184;-58
2023/11/14 07:42:16;;;;;;;17.10;3.40;;;19.00;59.40;;;;;;5052738;28;20298;-58
2023/11/14 07:44:43;;;;;;;15.80;3.55;;;19.00;59.30;;;;;;5052981;28;20184;-58
2023/11/14 07:47:11;;;;;;;16.08;4.38;;;18.90;59.30;;;;;;5047726;28;20673;-57
2023/11/14 07:49:39;;;;;;;12.35;3.33;;;19.00;59.30;;;;;;5052611;28;20252;-58
2023/11/14 07:52:07;;;;;;;11.45;3.38;;;19.00;59.30;;;;;;5056108;28;20269;-57
2023/11/14 07:54:34;;;;;;;12.68;3.05;;;19.00;59.10;;;;;;5048976;28;20790;-57
2023/11/14 07:57:03;;;;;;;16.90;3.92;;;19.00;59.00;;;;;;5046990;28;20191;-57
2023/11/14 07:59:31;;;;;;;11.80;3.17;;;19.00;59.00;;;;;;5043386;28;20201;-56
2023/11/14 08:01:58;;;;;;;9.73;2.92;;;19.00;59.00;;;;;;5054160;28;20215;-61
2023/11/14 08:04:25;;;;;;;14.82;3.33;;;19.00;59.00;;;;;;5049732;28;20235;-56
2023/11/14 08:06:52;;;;;;;9.45;2.72;;;19.00;59.10;;;;;;5069587;28;20294;-56
2023/11/14 08:09:21;;;;;;;15.02;3.40;;;19.00;59.10;;;;;;5053168;28;20238;-58
2023/11/14 08:11:48;;;;;;;13.80;3.47;;;19.00;59.10;;;;;;5047567;28;20210;-59
2023/11/14 08:14:16;;;;;;;15.20;3.58;;;19.00;59.30;;;;;;5046768;28;20268;-58
2023/11/14 08:16:43;;;;;;;11.32;3.50;;;19.10;59.50;;;;;;5051956;28;20278;-54
2023/11/14 08:19:10;;;;;;;14.27;3.58;;;19.10;59.40;;;;;;5050420;28;20223;-58
2023/11/14 08:21:37;;;;;;;15.30;3.33;;;19.10;59.50;;;;;;5050423;28;20569;-54
2023/11/14 08:24:04;;;;;;;13.55;3.15;;;19.20;59.50;;;;;;5049928;28;20597;-57
2023/11/14 08:26:33;;;;;;;13.27;2.90;;;19.20;59.50;;;;;;5050825;28;20282;-58
2023/11/14 08:29:00;;;;;;;10.88;3.10;;;19.20;59.50;;;;;;5042406;28;20298;-60
2023/11/14 08:31:27;;;;;;;8.95;2.60;;;19.30;59.30;;;;;;5053381;28;20195;-56
2023/11/14 08:33:55;;;;;;;14.40;3.20;;;19.30;59.20;;;;;;5057124;28;20229;-55
2023/11/14 08:36:22;;;;;;;12.40;3.38;;;19.30;59.10;;;;;;5069839;28;20294;-57
2023/11/14 08:38:49;;;;;;;11.10;2.80;;;19.40;59.10;;;;;;5056416;28;20243;-58
2023/11/14 08:41:16;;;;;;;11.73;3.33;;;19.40;59.00;;;;;;5051520;28;20199;-58
2023/11/14 08:43:45;;;;;;;11.57;2.53;;;19.40;59.00;;;;;;5036339;28;20220;-58
2023/11/14 08:46:14;;;;;;;9.52;3.08;;;19.40;58.90;;;;;;5051505;28;20658;-56
2023/11/14 08:48:43;;;;;;;9.88;2.90;;;19.50;58.90;;;;;;5058675;28;20821;-52
2023/11/14 08:51:11;;;;;;;11.20;3.53;;;19.50;58.90;;;;;;5057168;28;20305;-51
2023/11/14 08:53:39;;;;;;;11.30;3.17;;;19.50;58.90;;;;;;5064105;28;20226;-55
2023/11/14 08:56:06;;;;;;;12.02;3.00;;;19.50;58.90;;;;;;5056706;28;20199;-53
2023/11/14 08:58:33;;;;;;;8.45;2.72;;;19.50;58.80;;;;;;5051251;28;20230;-53
2023/11/14 09:01:04;;;;;;;9.52;2.88;;;19.50;58.70;;;;;;5062717;28;20202;-53
2023/11/14 09:03:31;;;;;;;9.18;2.50;;;19.50;58.70;;;;;;5056333;28;20196;-54
2023/11/14 09:05:58;;;;;;;10.57;3.25;;;19.60;58.70;;;;;;5064577;28;20195;-53
2023/11/14 09:08:30;;;;;;;7.63;2.58;;;19.60;58.70;;;;;;5070485;28;20286;-54
2023/11/14 09:10:59;;;;;;;11.35;2.40;;;19.60;58.70;;;;;;5067792;28;20491;-53
2023/11/14 09:13:25;;;;;;;7.93;2.70;;;19.60;58.60;;;;;;5068207;28;20229;-57
2023/11/14 09:15:54;;;;;;;9.35;2.80;;;19.60;58.50;;;;;;5069402;28;20222;-53
2023/11/14 09:18:23;;;;;;;9.73;2.83;;;19.60;58.50;;;;;;5069357;28;20225;-51
2023/11/14 09:20:50;;;;;;;11.73;2.53;;;19.70;59.50;;;;;;5069190;28;20221;-54
2023/11/14 09:23:21;;;;;;;11.45;2.67;;;19.70;58.80;;;;;;5070140;28;20191;-55
2023/11/14 09:26:09;;;;;;;12.75;3.20;;;19.70;58.80;;;;;;5055879;28;20980;-54
2023/11/14 09:28:37;;;;;;;12.18;3.03;;;19.70;58.70;;;;;;5066223;28;20206;-53
2023/11/14 09:31:05;;;;;;;7.50;2.30;;;19.70;58.70;;;;;;5068558;28;20779;-54
2023/11/14 09:33:33;;;;;;;8.75;2.72;;;19.70;58.70;;;;;;5061233;28;20191;-57
2023/11/14 09:36:00;;;;;;;12.60;3.08;;;19.70;58.70;;;;;;5060324;28;20638;-53
2023/11/14 09:38:27;;;;;;;10.23;2.47;;;19.70;58.70;;;;;;5067680;28;20203;-49
2023/11/14 09:40:54;;;;;;;9.85;2.22;;;19.70;58.60;;;;;;5069120;28;20301;-56
2023/11/14 09:43:22;;;;;;;12.30;2.95;;;19.70;58.60;;;;;;5068686;28;20187;-60
2023/11/14 09:45:50;;;;;;;7.85;2.33;;;19.70;58.60;;;;;;5056321;28;20215;-59
2023/11/14 09:48:18;;;;;;;8.18;2.53;;;19.70;58.60;;;;;;5059664;28;20200;-58
2023/11/14 09:50:46;;;;;;;9.15;2.45;;;19.70;58.60;;;;;;5071503;28;20262;-57
2023/11/14 09:53:14;;;;;;;7.80;2.67;;;19.70;58.50;;;;;;5072241;28;20273;-60
2023/11/14 09:55:41;;;;;;;9.38;2.80;;;19.70;58.60;;;;;;5070597;28;20225;-58
2023/11/14 09:58:08;;;;;;;13.40;2.60;;;19.70;58.60;;;;;;5072087;28;20194;-59
2023/11/14 10:00:36;;;;;;;10.18;2.78;;;19.70;58.60;;;;;;5071216;28;20215;-59
2023/11/14 10:03:04;;;;;;;13.48;4.22;;;19.70;58.60;;;;;;5072358;28;20190;-59
2023/11/14 10:05:31;;;;;;;11.45;3.55;;;19.70;58.50;;;;;;5073501;28;20242;-60
2023/11/14 10:08:01;;;;;;;9.13;3.83;;;19.70;58.50;;;;;;5071825;28;20298;-58
2023/11/14 10:10:29;;;;;;;12.25;3.90;;;19.70;58.50;;;;;;5071790;28;20269;-57
2023/11/14 10:12:56;;;;;;;12.88;4.15;;;19.70;58.50;;;;;;5052819;28;20662;-59
2023/11/14 10:15:28;;;;;;;9.60;3.65;;;19.70;58.50;;;;;;5052660;28;20606;-59
2023/11/14 10:17:56;;;;;;;10.43;3.78;;;19.70;58.60;;;;;;5057992;28;20291;-59
2023/11/14 10:20:24;;;;;;;24.98;3.97;;;19.70;59.30;;;;;;5057163;28;20220;-55
2023/11/14 10:22:53;;;;;;;10.73;3.63;;;19.70;58.60;;;;;;5067911;28;20195;-60
2023/11/14 10:25:29;;;;;;;13.85;3.10;;;19.80;58.60;;;;;;5060480;28;20769;-58
2023/11/14 10:27:59;;;;;;;13.35;3.33;;;19.80;58.60;;;;;;5071984;28;20187;-60
2023/11/14 10:30:27;;;;;;;9.50;3.20;;;19.80;58.70;;;;;;5072193;28;20319;-59
2023/11/14 10:32:55;;;;;;;8.57;2.90;;;19.80;58.60;;;;;;5073197;28;20278;-58
2023/11/14 10:35:23;;;;;;;15.68;4.18;;;19.80;58.60;;;;;;5062550;28;20771;-59
2023/11/14 10:37:50;;;;;;;10.30;3.08;;;19.80;58.60;;;;;;5062982;28;20290;-57
2023/11/14 10:40:17;;;;;;;9.82;2.65;;;19.80;58.60;;;;;;5073547;28;20241;-61
2023/11/14 10:42:53;;;;;;;10.13;3.20;;;19.90;58.60;;;;;;5073216;28;20269;-60
2023/11/14 10:45:20;;;;;;;10.20;2.70;;;19.90;58.60;;;;;;5069584;28;20229;-60
2023/11/14 10:47:48;;;;;;;11.18;2.72;;;19.90;58.60;;;;;;5073001;28;20237;-58
2023/11/14 10:50:30;;;;;;;11.45;2.13;;;19.90;59.20;;;;;;5071044;28;20666;-59
2023/11/14 10:52:57;;;;;;;7.72;2.50;;;19.90;58.60;;;;;;5072813;28;20289;-58
2023/11/14 10:55:25;;;;;;;6.70;2.33;;;19.90;58.60;;;;;;5065325;28;20234;-56
2023/11/14 10:57:55;;;;;;;7.57;2.60;;;19.90;58.60;;;;;;5059903;28;20278;-61
2023/11/14 11:00:22;;;;;;;9.40;2.33;;;19.90;58.60;;;;;;5051386;28;21093;-59
2023/11/14 11:02:51;;;;;;;10.85;2.17;;;19.90;58.50;;;;;;5070035;28;20278;-58
2023/11/14 11:05:20;;;;;;;7.68;2.40;;;20.00;58.60;;;;;;5072524;28;20243;-60
2023/11/14 11:07:47;;;;;;;10.80;2.50;;;20.00;58.50;;;;;;5069305;28;20566;-60
2023/11/14 11:10:16;;;;;;;7.30;2.10;;;20.00;58.40;;;;;;5057056;28;20222;-59
2023/11/14 11:12:45;;;;;;;7.75;2.35;;;20.00;58.40;;;;;;5071826;28;20211;-60
2023/11/14 11:15:14;;;;;;;8.20;2.78;;;20.00;58.30;;;;;;5052011;28;20243;-62
2023/11/14 11:17:43;;;;;;;9.90;2.50;;;20.00;58.30;;;;;;5058858;28;20253;-59
2023/11/14 11:20:21;;;;;;;9.52;2.40;;;20.00;58.90;;;;;;5051184;28;20289;-58
2023/11/14 11:23:08;;;;;;;7.93;2.45;;;20.00;58.20;;;;;;5051370;28;20187;-55
2023/11/14 11:25:35;;;;;;;8.45;2.42;;;20.00;58.20;;;;;;5071007;28;20210;-59
2023/11/14 11:28:30;;;;;;;8.90;2.30;;;20.00;58.20;;;;;;5071023;28;20194;-57
2023/11/14 11:31:14;;;;;;;12.63;2.70;;;20.00;58.10;;;;;;5069110;28;20337;-59
2023/11/14 11:33:42;;;;;;;8.25;2.17;;;20.00;58.10;;;;;;5071326;28;20548;-59
2023/11/14 11:36:29;;;;;;;9.57;2.65;;;20.00;58.10;;;;;;5071890;28;20700;-60
2023/11/14 11:38:58;;;;;;;7.57;2.13;;;20.00;58.10;;;;;;5070368;28;20642;-58
2023/11/14 11:41:26;;;;;;;10.02;2.45;;;20.00;58.00;;;;;;5071472;28;20221;-59
2023/11/14 11:44:06;;;;;;;5.88;2.10;;;20.00;58.00;;;;;;5069856;28;20568;-58
2023/11/14 11:46:38;;;;;;;7.13;2.40;;;20.00;58.00;;;;;;5061857;28;20630;-58
2023/11/14 11:49:32;;;;;;;7.43;2.42;;;20.00;58.00;;;;;;5057432;28;20197;-57
2023/11/14 11:52:11;;;;;;;13.35;2.55;;;20.00;58.00;;;;;;5058263;28;20233;-59
2023/11/14 11:54:39;;;;;;;10.32;2.65;;;19.90;57.90;;;;;;5066390;28;20209;-58
2023/11/14 11:57:10;;;;;;;7.47;2.20;;;19.90;57.90;;;;;;5069493;28;21014;-56
2023/11/14 12:00:10;;;;;;;10.13;2.58;;;19.90;57.90;;;;;;5066981;28;20743;-58
2023/11/14 12:02:39;;;;;;;8.10;2.20;;;19.90;57.80;;;;;;5048820;28;20217;-57
2023/11/14 12:05:10;;;;;;;5.80;2.25;;;19.90;57.80;;;;;;5052892;28;20250;-58
2023/11/14 12:07:37;;;;;;;9.15;2.20;;;19.90;57.80;;;;;;5071592;28;20194;-59
2023/11/14 12:10:05;;;;;;;8.70;2.30;;;19.90;57.80;;;;;;5070995;28;20225;-56
2023/11/14 12:12:38;;;;;;;9.68;2.58;;;20.00;57.80;;;;;;5071717;28;20276;-58
2023/11/14 12:15:07;;;;;;;10.18;2.63;;;20.00;57.80;;;;;;5070853;28;20215;-59
2023/11/14 12:17:35;;;;;;;5.43;2.10;;;19.90;57.80;;;;;;5069209;28;20697;-59
2023/11/14 12:20:09;;;;;;;6.65;1.92;;;19.90;57.70;;;;;;5071382;28;20306;-59
2023/11/14 12:22:37;;;;;;;6.60;1.98;;;19.90;57.70;;;;;;5060031;28;20261;-52
2023/11/14 12:25:05;;;;;;;7.00;2.13;;;19.90;58.30;;;;;;5058741;28;20292;-59
2023/11/14 12:27:32;;;;;;;6.85;2.25;;;19.90;57.70;;;;;;5056014;28;20625;-58
2023/11/14 12:30:11;;;;;;;7.35;2.45;;;19.90;57.60;;;;;;5050549;28;20198;-59
2023/11/14 12:32:38;;;;;;;7.43;2.33;;;19.90;57.50;;;;;;5051098;28;20202;-59
2023/11/14 12:35:07;;;;;;;7.57;2.17;;;19.90;57.50;;;;;;5063673;28;20198;-58
2023/11/14 12:37:34;;;;;;;7.43;2.00;;;20.00;57.50;;;;;;5070914;28;20278;-59
2023/11/14 12:40:10;;;;;;;11.70;2.60;;;20.00;57.40;;;;;;5069842;28;20187;-58
2023/11/14 12:42:40;;;;;;;9.43;2.25;;;20.00;57.40;;;;;;5071065;28;20244;-57
2023/11/14 12:45:08;;;;;;;6.80;2.30;;;20.00;57.30;;;;;;5071025;28;20269;-58